Terminal Aerodrome Forecast
Issued by NWS

Home | Current Version | Previous Version | Text Only | Print | Product List | Glossary On
Versions: 1 2 3 4 5 6 7 8 9 10 11 12 13 14 15 16 17 18 19 20 21 22
000
FTUS44 KLIX 280012 RRA
TAFMCB
TAF
KMCB 280012Z 2800/2824 10007G15KT P6SM -RA FEW030 BKN090 BKN110
     FM280300 10008KT 3SM SHRA OVC025
      TEMPO 2804/2808 TSRA OVC010CB
     FM281200 08007KT P6SM VCTS OVC025CB
     FM281700 02004KT P6SM VCTS OVC015CB
     FM282200 34008KT P6SM VCTS BKN008CB=

USA.gov is the U.S. government's official web portal to all federal, state and local government web resources and services.